Golden Iris — 3FZK4 — position and weather

sailwx.info

Track history (hours):
 
Tides and Currents Weather Stations Pressure Air Temp Water Temp Dewpoint Dewpoint Depression Visibility Wind Speed Wind Dir Waves Ship Positions

Golden Iris

Last reported at 2016-Jun-26 23:10 UTC. Time now 2016-Jun-28 22:28 UTC.
Position N 34°28' E 031°56'.

Length 163 m; draft 6 m.

Type: Passenger vessel. MMSI: 371771000.

Date/timePositionNaut miles runAvg speedWind from/ knotsBaromVisibWave heightAir tempDewpointWater temp
2016-Jun-26 23:10N 34°28' E 031°56'913.6
2016-Jun-26 22:32N 34°23' E 032°05'3013.5
2016-Jun-26 20:20N 34°07' E 032°35'1013.5
2016-Jun-26 19:34N 34°01' E 032°46'1413.5
2016-Jun-26 18:33N 33°54' E 032°59'1313.4
2016-Jun-26 17:33N 33°47' E 033°13'1313.4
2016-Jun-26 16:34N 33°39' E 033°26'2113.9
2016-Jun-26 15:04N 33°28' E 033°47'713.6
2016-Jun-26 14:33N 33°25' E 033°54'2613.2
2016-Jun-26 12:33N 33°10' E 034°21'1413.5
2016-Jun-26 11:33N 33°03' E 034°35'1413.8
2016-Jun-26 10:33N 32°56' E 034°49'1212.3
2016-Jun-26 09:33N 32°50' E 035°01'1 0.9
2016-Jun-26 08:33N 32°49' E 035°00'0 0.0
2016-Jun-26 07:33N 32°49' E 035°00'0 0.0
2016-Jun-26 06:33N 32°49' E 035°00'0 0.0
2016-Jun-26 05:33N 32°49' E 035°00'0 0.0
2016-Jun-26 04:33N 32°49' E 035°00'0 0.0
2016-Jun-26 03:33N 32°49' E 035°00'2 1.5
2016-Jun-26 02:33N 32°51' E 035°01'9 9.1
2016-Jun-26 01:33N 32°54' E 034°51'1414.0
2016-Jun-26 00:33N 32°57' E 034°35'1413.6
2016-Jun-25 23:33N 32°60' E 034°19'1313.2
2016-Jun-25 22:34N 33°02' E 034°03'1313.1
2016-Jun-25 21:34N 33°05' E 033°48'1613.4
2016-Jun-25 20:20N 33°11' E 033°30'1113.6
2016-Jun-25 19:32N 33°14' E 033°17'1313.5
2016-Jun-25 18:33N 33°19' E 033°03'1313.1
2016-Jun-25 17:33N 33°23' E 032°48'1413.2
2016-Jun-25 16:30N 33°28' E 032°32'1513.2
2016-Jun-25 15:24N 33°34' E 032°16'1113.4
2016-Jun-25 14:33N 33°38' E 032°03'1313.5
2016-Jun-25 13:33N 33°43' E 031°48'1413.5
2016-Jun-25 12:30N 33°47' E 031°32'1313.3
2016-Jun-25 11:33N 33°51' E 031°18'1313.4
2016-Jun-25 10:33N 33°56' E 031°03'1713.4
2016-Jun-25 09:20N 34°01' E 030°44'1113.7
2016-Jun-25 08:33N 34°05' E 030°32'2013.6
2016-Jun-25 07:03N 34°12' E 030°09'307 8.0
2016-Jun-23 16:33N 37°07' E 024°59'1111.3
2016-Jun-23 15:33N 37°18' E 025°05'1111.2
2016-Jun-23 14:33N 37°27' E 025°11'6 6.0
2016-Jun-23 13:31N 37°28' E 025°19'0 0.0
2016-Jun-23 12:31N 37°28' E 025°19'0 0.0
2016-Jun-23 11:31N 37°28' E 025°19'0 0.0
2016-Jun-23 10:31N 37°28' E 025°19'0 0.0
2016-Jun-23 09:31N 37°28' E 025°19'0 0.0
2016-Jun-23 08:28N 37°28' E 025°19'0 0.0
2016-Jun-23 07:31N 37°28' E 025°19'0 0.0
2016-Jun-23 05:31N 37°28' E 025°19'0 0.0
2016-Jun-23 04:31N 37°28' E 025°19'0 0.0
2016-Jun-23 03:31N 37°28' E 025°19'0 0.0
2016-Jun-23 02:31N 37°28' E 025°19'0 0.0
2016-Jun-23 01:31N 37°28' E 025°19'0 0.0
2016-Jun-23 00:31N 37°28' E 025°19'0 0.0
2016-Jun-22 23:31N 37°28' E 025°19'0 0.0
2016-Jun-22 22:31N 37°28' E 025°19'0 0.0
2016-Jun-22 21:31N 37°28' E 025°19'0 0.0
2016-Jun-22 20:31N 37°28' E 025°19'0 0.0
2016-Jun-22 19:28N 37°28' E 025°19'0 0.0
2016-Jun-22 18:31N 37°28' E 025°19'0 0.0
2016-Jun-22 17:31N 37°28' E 025°19'0 0.0
2016-Jun-22 16:31N 37°28' E 025°19'0 0.0
2016-Jun-22 15:31N 37°28' E 025°19'0 0.0
2016-Jun-22 14:31N 37°28' E 025°19'0 0.0
2016-Jun-22 13:33N 37°28' E 025°19'6 5.7
2016-Jun-22 12:33N 37°27' E 025°12'8 7.5
2016-Jun-22 11:33N 37°20' E 025°13'1110.9
2016-Jun-22 10:32N 37°16' E 025°26'1311.4
2016-Jun-22 09:23N 37°12' E 025°42'368 8.6
2016-Jun-20 14:34N 34°36' E 032°34'1313.3
2016-Jun-20 13:33N 34°33' E 032°50'1211.8
2016-Jun-20 12:33N 34°33' E 033°04'6 6.2
2016-Jun-20 11:31N 34°39' E 033°01'0 0.0
2016-Jun-20 10:31N 34°39' E 033°01'0 0.0
2016-Jun-20 09:31N 34°39' E 033°01'0 0.0
2016-Jun-20 08:31N 34°39' E 033°01'0 0.0
2016-Jun-20 07:31N 34°39' E 033°01'0 0.0
2016-Jun-20 06:31N 34°39' E 033°01'0 0.0
2016-Jun-20 05:31N 34°39' E 033°01'1 1.5
2016-Jun-20 04:34N 34°39' E 033°03'9 9.1
2016-Jun-20 03:34N 34°33' E 033°11'8 8.1
2016-Jun-20 02:34N 34°26' E 033°16'11 8.7
2016-Jun-20 01:18N 34°18' E 033°25'6 8.6
2016-Jun-20 00:33N 34°13' E 033°29'8 8.4
2016-Jun-19 23:34N 34°06' E 033°36'8 8.2
2016-Jun-19 22:32N 33°60' E 033°42'16 8.0
2016-Jun-19 20:34N 33°47' E 033°53'8 8.4
2016-Jun-19 19:34N 33°41' E 033°60'25 8.2
2016-Jun-19 16:31N 33°21' E 034°18'8 7.7
2016-Jun-19 15:31N 33°15' E 034°24'8 8.2
2016-Jun-19 14:30N 33°09' E 034°30'8 8.2
2016-Jun-19 13:34N 33°03' E 034°37'8 8.0
2016-Jun-19 12:34N 32°58' E 034°44'8 7.9
2016-Jun-19 11:34N 32°54' E 034°53'8 7.9
2016-Jun-19 10:34N 32°51' E 035°01'2 1.6
2016-Jun-19 09:31N 32°49' E 035°00'0 0.0
2016-Jun-19 08:31N 32°49' E 035°00'0 0.0
2016-Jun-19 07:31N 32°49' E 035°00'0 0.0
2016-Jun-19 06:31N 32°49' E 035°00'0 0.0
2016-Jun-19 05:31N 32°49' E 035°00'0 0.0
2016-Jun-19 04:31N 32°49' E 035°00'0 0.0
2016-Jun-19 03:31N 32°49' E 035°00'1 1.2
2016-Jun-19 02:33N 32°50' E 035°01'9 8.9
2016-Jun-19 01:34N 32°54' E 034°52'1110.5
2016-Jun-19 00:33N 32°56' E 034°40'1110.0
2016-Jun-18 23:27N 33°02' E 034°29'1011.1
2016-Jun-18 22:34N 33°10' E 034°21'1111.1
2016-Jun-18 21:33N 33°20' E 034°15'1211.7
2016-Jun-18 20:33N 33°31' E 034°10'1511.3
2016-Jun-18 19:14N 33°44' E 034°03'710.4
2016-Jun-18 18:33N 33°51' E 033°59'1110.5
2016-Jun-18 17:33N 34°01' E 033°56'1110.7
2016-Jun-18 16:33N 34°11' E 033°54'1110.8
2016-Jun-18 15:33N 34°22' E 033°51'1111.1
2016-Jun-18 14:33N 34°33' E 033°48'1111.1
2016-Jun-18 13:32N 34°44' E 033°44'13 3.9
2016-Jun-18 10:14N 34°56' E 033°39'0 0.0
2016-Jun-18 09:32N 34°56' E 033°39'0 0.0
2016-Jun-17 17:17N 34°56' E 033°39'0 0.0
2016-Jun-17 16:29N 34°56' E 033°39'0 0.0
2016-Jun-17 15:32N 34°56' E 033°39'14 1.7
2016-Jun-17 07:15N 34°43' E 033°44'14 8.2
2016-Jun-17 05:31N 34°29' E 033°50'7 7.7
2016-Jun-17 04:33N 34°22' E 033°52'8 8.1
2016-Jun-17 03:33N 34°14' E 033°55'8 8.5
2016-Jun-17 02:33N 34°06' E 033°57'  
Track history (hours):
 
Tides and Currents Weather Stations Pressure Air Temp Water Temp Dewpoint Dewpoint Depression Visibility Wind Speed Wind Dir Waves Ship Positions

Golden Iris

Last reported at 2016-Jun-26 23:10 UTC. Time now 2016-Jun-28 22:28 UTC.
Position N 34°28' E 031°56'.

Length 163 m; draft 6 m.

Type: Passenger vessel. MMSI: 371771000.

Date/timePositionNaut miles runAvg speedWind from/ knotsBaromVisibWave heightAir tempDewpointWater temp
2016-Jun-26 23:10N 34°28' E 031°56'913.6
2016-Jun-26 22:32N 34°23' E 032°05'3013.5
2016-Jun-26 20:20N 34°07' E 032°35'1013.5
2016-Jun-26 19:34N 34°01' E 032°46'1413.5
2016-Jun-26 18:33N 33°54' E 032°59'1313.4
2016-Jun-26 17:33N 33°47' E 033°13'1313.4
2016-Jun-26 16:34N 33°39' E 033°26'2113.9
2016-Jun-26 15:04N 33°28' E 033°47'713.6
2016-Jun-26 14:33N 33°25' E 033°54'2613.2
2016-Jun-26 12:33N 33°10' E 034°21'1413.5
2016-Jun-26 11:33N 33°03' E 034°35'1413.8
2016-Jun-26 10:33N 32°56' E 034°49'1212.3
2016-Jun-26 09:33N 32°50' E 035°01'1 0.9
2016-Jun-26 08:33N 32°49' E 035°00'0 0.0
2016-Jun-26 07:33N 32°49' E 035°00'0 0.0
2016-Jun-26 06:33N 32°49' E 035°00'0 0.0
2016-Jun-26 05:33N 32°49' E 035°00'0 0.0
2016-Jun-26 04:33N 32°49' E 035°00'0 0.0
2016-Jun-26 03:33N 32°49' E 035°00'2 1.5
2016-Jun-26 02:33N 32°51' E 035°01'9 9.1
2016-Jun-26 01:33N 32°54' E 034°51'1414.0
2016-Jun-26 00:33N 32°57' E 034°35'1413.6
2016-Jun-25 23:33N 32°60' E 034°19'1313.2
2016-Jun-25 22:34N 33°02' E 034°03'1313.1
2016-Jun-25 21:34N 33°05' E 033°48'1613.4
2016-Jun-25 20:20N 33°11' E 033°30'1113.6
2016-Jun-25 19:32N 33°14' E 033°17'1313.5
2016-Jun-25 18:33N 33°19' E 033°03'1313.1
2016-Jun-25 17:33N 33°23' E 032°48'1413.2
2016-Jun-25 16:30N 33°28' E 032°32'1513.2
2016-Jun-25 15:24N 33°34' E 032°16'1113.4
2016-Jun-25 14:33N 33°38' E 032°03'1313.5
2016-Jun-25 13:33N 33°43' E 031°48'1413.5
2016-Jun-25 12:30N 33°47' E 031°32'1313.3
2016-Jun-25 11:33N 33°51' E 031°18'1313.4
2016-Jun-25 10:33N 33°56' E 031°03'1713.4
2016-Jun-25 09:20N 34°01' E 030°44'1113.7
2016-Jun-25 08:33N 34°05' E 030°32'2013.6
2016-Jun-25 07:03N 34°12' E 030°09'307 8.0
2016-Jun-23 16:33N 37°07' E 024°59'1111.3
2016-Jun-23 15:33N 37°18' E 025°05'1111.2
2016-Jun-23 14:33N 37°27' E 025°11'6 6.0
2016-Jun-23 13:31N 37°28' E 025°19'0 0.0
2016-Jun-23 12:31N 37°28' E 025°19'0 0.0
2016-Jun-23 11:31N 37°28' E 025°19'0 0.0
2016-Jun-23 10:31N 37°28' E 025°19'0 0.0
2016-Jun-23 09:31N 37°28' E 025°19'0 0.0
2016-Jun-23 08:28N 37°28' E 025°19'0 0.0
2016-Jun-23 07:31N 37°28' E 025°19'0 0.0
2016-Jun-23 05:31N 37°28' E 025°19'0 0.0
2016-Jun-23 04:31N 37°28' E 025°19'0 0.0
2016-Jun-23 03:31N 37°28' E 025°19'0 0.0
2016-Jun-23 02:31N 37°28' E 025°19'0 0.0
2016-Jun-23 01:31N 37°28' E 025°19'0 0.0
2016-Jun-23 00:31N 37°28' E 025°19'0 0.0
2016-Jun-22 23:31N 37°28' E 025°19'0 0.0
2016-Jun-22 22:31N 37°28' E 025°19'0 0.0
2016-Jun-22 21:31N 37°28' E 025°19'0 0.0
2016-Jun-22 20:31N 37°28' E 025°19'0 0.0
2016-Jun-22 19:28N 37°28' E 025°19'0 0.0
2016-Jun-22 18:31N 37°28' E 025°19'0 0.0
2016-Jun-22 17:31N 37°28' E 025°19'0 0.0
2016-Jun-22 16:31N 37°28' E 025°19'0 0.0
2016-Jun-22 15:31N 37°28' E 025°19'0 0.0
2016-Jun-22 14:31N 37°28' E 025°19'0 0.0
2016-Jun-22 13:33N 37°28' E 025°19'6 5.7
2016-Jun-22 12:33N 37°27' E 025°12'8 7.5
2016-Jun-22 11:33N 37°20' E 025°13'1110.9
2016-Jun-22 10:32N 37°16' E 025°26'1311.4
2016-Jun-22 09:23N 37°12' E 025°42'368 8.6
2016-Jun-20 14:34N 34°36' E 032°34'1313.3
2016-Jun-20 13:33N 34°33' E 032°50'1211.8
2016-Jun-20 12:33N 34°33' E 033°04'6 6.2
2016-Jun-20 11:31N 34°39' E 033°01'0 0.0
2016-Jun-20 10:31N 34°39' E 033°01'0 0.0
2016-Jun-20 09:31N 34°39' E 033°01'0 0.0
2016-Jun-20 08:31N 34°39' E 033°01'0 0.0
2016-Jun-20 07:31N 34°39' E 033°01'0 0.0
2016-Jun-20 06:31N 34°39' E 033°01'0 0.0
2016-Jun-20 05:31N 34°39' E 033°01'1 1.5
2016-Jun-20 04:34N 34°39' E 033°03'9 9.1
2016-Jun-20 03:34N 34°33' E 033°11'8 8.1
2016-Jun-20 02:34N 34°26' E 033°16'11 8.7
2016-Jun-20 01:18N 34°18' E 033°25'6 8.6
2016-Jun-20 00:33N 34°13' E 033°29'8 8.4
2016-Jun-19 23:34N 34°06' E 033°36'8 8.2
2016-Jun-19 22:32N 33°60' E 033°42'16 8.0
2016-Jun-19 20:34N 33°47' E 033°53'8 8.4
2016-Jun-19 19:34N 33°41' E 033°60'25 8.2
2016-Jun-19 16:31N 33°21' E 034°18'8 7.7
2016-Jun-19 15:31N 33°15' E 034°24'8 8.2
2016-Jun-19 14:30N 33°09' E 034°30'8 8.2
2016-Jun-19 13:34N 33°03' E 034°37'8 8.0
2016-Jun-19 12:34N 32°58' E 034°44'8 7.9
2016-Jun-19 11:34N 32°54' E 034°53'8 7.9
2016-Jun-19 10:34N 32°51' E 035°01'2 1.6
2016-Jun-19 09:31N 32°49' E 035°00'0 0.0
2016-Jun-19 08:31N 32°49' E 035°00'0 0.0
2016-Jun-19 07:31N 32°49' E 035°00'0 0.0
2016-Jun-19 06:31N 32°49' E 035°00'0 0.0
2016-Jun-19 05:31N 32°49' E 035°00'0 0.0
2016-Jun-19 04:31N 32°49' E 035°00'0 0.0
2016-Jun-19 03:31N 32°49' E 035°00'1 1.2
2016-Jun-19 02:33N 32°50' E 035°01'9 8.9
2016-Jun-19 01:34N 32°54' E 034°52'1110.5
2016-Jun-19 00:33N 32°56' E 034°40'1110.0
2016-Jun-18 23:27N 33°02' E 034°29'1011.1
2016-Jun-18 22:34N 33°10' E 034°21'1111.1
2016-Jun-18 21:33N 33°20' E 034°15'1211.7
2016-Jun-18 20:33N 33°31' E 034°10'1511.3
2016-Jun-18 19:14N 33°44' E 034°03'710.4
2016-Jun-18 18:33N 33°51' E 033°59'1110.5
2016-Jun-18 17:33N 34°01' E 033°56'1110.7
2016-Jun-18 16:33N 34°11' E 033°54'1110.8
2016-Jun-18 15:33N 34°22' E 033°51'1111.1
2016-Jun-18 14:33N 34°33' E 033°48'1111.1
2016-Jun-18 13:32N 34°44' E 033°44'13 3.9
2016-Jun-18 10:14N 34°56' E 033°39'0 0.0
2016-Jun-18 09:32N 34°56' E 033°39'0 0.0
2016-Jun-17 17:17N 34°56' E 033°39'0 0.0
2016-Jun-17 16:29N 34°56' E 033°39'0 0.0
2016-Jun-17 15:32N 34°56' E 033°39'14 1.7
2016-Jun-17 07:15N 34°43' E 033°44'14 8.2
2016-Jun-17 05:31N 34°29' E 033°50'7 7.7
2016-Jun-17 04:33N 34°22' E 033°52'8 8.1
2016-Jun-17 03:33N 34°14' E 033°55'8 8.5
2016-Jun-17 02:33N 34°06' E 033°57'  

Dump ship's entire track history